Time;durP1;ratioP1;P1;durP2;ratioP2;P2;SDS_P1;SDS_P2;PMS_P1;PMS_P2;Temp;Humidity;BMP_temperature;BMP_pressure;BME280_temperature;BME280_humidity;BME280_pressure;Samples;Min_cycle;Max_cycle;Signal;HPM_P1;HPM_P2
2021/12/04 00:02:11;;;;;;;6.22;3.25;;;;;;;13.69;72.89;100879.97;5098619;28;20092;-87
2021/12/04 00:04:40;;;;;;;4.78;3.05;;;;;;;13.82;72.48;100904.22;5111131;28;20027;-87
2021/12/04 00:07:07;;;;;;;4.88;3.20;;;;;;;13.80;72.54;100897.06;5098608;27;20063;-87
2021/12/04 00:09:33;;;;;;;5.20;3.10;;;;;;;13.64;72.49;100864.03;5102117;28;20027;-87
2021/12/04 00:12:03;;;;;;;6.90;3.33;;;;;;;13.95;72.97;100930.97;5094252;28;20059;-88
2021/12/04 00:14:34;;;;;;;6.70;3.50;;;;;;;13.96;72.84;100933.66;5107230;28;20134;-88
2021/12/04 00:17:00;;;;;;;4.47;2.85;;;;;;;13.57;73.04;100867.25;5107934;27;20111;-88
2021/12/04 00:19:27;;;;;;;5.18;3.15;;;;;;;13.22;73.19;100808.84;5094522;28;20026;-87
2021/12/04 00:21:53;;;;;;;6.75;3.20;;;;;;;13.88;72.81;100889.53;5093711;28;20103;-87
2021/12/04 00:24:20;;;;;;;5.18;2.95;;;;;;;14.02;72.77;100918.16;5104843;28;20024;-88
2021/12/04 00:26:46;;;;;;;;;;;;;;;14.00;72.90;100913.69;5070764;28;20088;-88
2021/12/04 00:29:12;;;;;;;6.50;3.13;;;;;;;13.84;72.50;100867.50;5102694;28;19916;-86
2021/12/04 00:31:41;;;;;;;4.40;2.80;;;;;;;13.56;72.93;100833.94;5090299;28;20486;-87
2021/12/04 00:34:06;;;;;;;7.47;3.20;;;;;;;13.81;72.99;100888.38;5087910;28;20063;-87
2021/12/04 00:36:58;;;;;;;4.72;2.78;;;;;;;14.05;72.43;100910.44;5100071;28;20063;-87
2021/12/04 00:50:19;;;;;;;3.95;2.92;;;;;;;13.93;73.52;100917.78;5103327;28;20148;-88
2021/12/04 00:52:45;;;;;;;3.97;2.80;;;;;;;13.70;73.10;100864.31;5111671;28;20497;-88
2021/12/04 00:55:11;;;;;;;4.22;2.90;;;;;;;14.05;72.56;100909.53;5067224;28;20039;-88
2021/12/04 00:57:38;;;;;;;4.07;2.33;;;;;;;13.77;73.36;100897.84;5084784;28;20523;-87
2021/12/04 01:00:06;;;;;;;6.15;3.05;;;;;;;14.13;72.76;100939.63;5076524;28;20051;-88
2021/12/04 01:02:32;;;;;;;3.83;2.90;;;;;;;14.03;72.95;100941.00;5101841;28;20016;-86
2021/12/04 01:05:00;;;;;;;5.63;2.85;;;;;;;13.80;73.30;100919.00;5083901;28;20140;-86
2021/12/04 01:07:26;;;;;;;5.28;2.97;;;;;;;13.89;73.88;100926.38;5093589;28;20034;-88
2021/12/04 01:09:52;;;;;;;5.60;3.10;;;;;;;14.01;73.38;100897.09;5091135;28;20019;-87
2021/12/04 01:12:18;;;;;;;5.88;3.33;;;;;;;13.51;73.27;100848.59;5093933;28;20081;-88
2021/12/04 01:14:44;;;;;;;5.15;2.85;;;;;;;14.02;73.22;100935.66;5092089;27;20019;-88
2021/12/04 01:17:09;;;;;;;4.18;2.88;;;;;;;13.98;72.84;100878.59;5063740;28;20032;-87
2021/12/04 01:19:36;;;;;;;4.63;2.95;;;;;;;13.75;73.15;100840.88;5101240;28;20460;-87
2021/12/04 01:22:03;;;;;;;5.15;3.22;;;;;;;13.41;73.13;100781.72;5093518;28;20115;-87
2021/12/04 01:24:29;;;;;;;4.13;3.00;;;;;;;13.79;73.79;100853.31;5076392;28;20536;-88
2021/12/04 01:26:55;;;;;;;4.32;3.20;;;;;;;13.92;73.76;100871.34;5111019;28;20027;-88
2021/12/04 01:29:20;;;;;;;4.88;3.33;;;;;;;13.69;73.37;100817.00;5086762;28;20028;-88
2021/12/04 01:31:47;;;;;;;6.63;2.90;;;;;;;14.08;73.27;100891.28;5102509;28;20452;-87
2021/12/04 01:34:14;;;;;;;4.63;2.90;;;;;;;14.09;73.24;100884.28;5095538;28;20032;-88
2021/12/04 01:36:40;;;;;;;5.32;2.88;;;;;;;13.70;73.57;100821.44;5102551;28;20051;-89
2021/12/04 01:39:06;;;;;;;5.05;2.67;;;;;;;14.00;73.87;100861.19;5107336;28;20039;-89
2021/12/04 01:41:35;;;;;;;;;;;;;;;14.00;73.69;100861.19;5107193;28;20032;-88
2021/12/04 01:44:03;;;;;;;5.05;2.80;;;;;;;14.03;73.70;100870.09;5110180;28;19929;-88
2021/12/04 01:46:30;;;;;;;3.45;2.60;;;;;;;13.88;74.03;100858.03;5127292;28;20035;-89
2021/12/04 01:48:59;;;;;;;4.78;2.72;;;;;;;13.75;73.61;100825.13;5093309;28;20092;-89
2021/12/04 01:51:25;;;;;;;4.45;3.00;;;;;;;14.00;73.75;100875.19;5095953;28;20052;-89
2021/12/04 01:53:51;;;;;;;5.50;2.90;;;;;;;13.82;73.27;100822.84;5080537;28;20110;-88
2021/12/04 01:56:17;;;;;;;5.03;3.10;;;;;;;13.90;73.69;100843.25;5094573;28;20058;-88
2021/12/04 01:58:43;;;;;;;;;;;;;;;14.04;73.73;100878.84;5111135;28;20040;-88
2021/12/04 02:01:09;;;;;;;4.20;2.90;;;;;;;14.09;73.71;100879.03;5098592;28;19923;-89
2021/12/04 02:03:36;;;;;;;6.50;2.97;;;;;;;13.68;73.82;100813.47;5094068;28;20047;-89
2021/12/04 02:06:02;;;;;;;5.65;3.08;;;;;;;13.89;73.58;100833.59;5093400;28;20108;-89
2021/12/04 02:08:28;;;;;;;;;;;;;;;14.19;73.24;100855.84;5113855;28;20122;-89
2021/12/04 02:10:57;;;;;;;5.68;3.58;;;;;;;13.99;72.50;100797.28;5092796;28;20407;-88
2021/12/04 02:13:24;;;;;;;6.03;3.50;;;;;;;14.26;72.04;100841.22;5078412;28;20028;-88
2021/12/04 02:15:49;;;;;;;;;;;;;;;14.24;72.70;100849.06;5098747;28;20046;-88
2021/12/04 02:18:17;;;;;;;5.72;3.28;;;;;;;13.92;72.45;100758.47;5104678;28;20344;-89
2021/12/04 02:20:44;;;;;;;5.03;3.22;;;;;;;14.22;72.90;100862.94;5126470;28;20023;-89
2021/12/04 02:23:10;;;;;;;5.30;3.30;;;;;;;14.07;73.29;100859.69;5092894;28;20023;-88
2021/12/04 02:25:37;;;;;;;5.32;3.50;;;;;;;14.22;72.60;100849.81;5108637;27;20019;-88
2021/12/04 02:28:04;;;;;;;5.95;3.10;;;;;;;14.24;72.55;100850.78;5099865;28;20126;-87
2021/12/04 02:30:32;;;;;;;5.00;3.30;;;;;;;14.11;72.31;100819.59;5113246;28;20041;-87
2021/12/04 02:32:59;;;;;;;5.78;3.20;;;;;;;14.31;72.00;100858.09;5087770;28;20055;-87
2021/12/04 02:35:25;;;;;;;5.55;3.33;;;;;;;14.27;72.11;100863.16;5093971;28;20024;-87
2021/12/04 02:37:52;;;;;;;5.55;3.30;;;;;;;14.12;72.45;100860.78;5107596;28;20060;-89
2021/12/04 02:40:22;;;;;;;4.55;2.92;;;;;;;14.12;72.83;100872.19;5092999;28;20372;-87
2021/12/04 02:42:48;;;;;;;5.90;3.45;;;;;;;14.19;72.75;100878.59;5074740;28;20414;-86
2021/12/04 02:45:14;;;;;;;4.47;3.30;;;;;;;14.03;72.77;100846.47;5075471;28;20474;-87
2021/12/04 02:47:40;;;;;;;;;;;;;;;14.25;72.39;100877.09;5098506;28;20098;-88
2021/12/04 02:50:07;;;;;;;4.88;3.33;;;;;;;14.12;72.67;100866.94;5112936;28;20012;-87
2021/12/04 02:52:34;;;;;;;5.00;3.33;;;;;;;13.96;72.91;100861.88;5097886;28;20024;-87
2021/12/04 02:55:01;;;;;;;4.45;3.10;;;;;;;14.09;72.61;100872.06;5090475;28;20051;-87
2021/12/04 02:57:28;;;;;;;4.72;3.38;;;;;;;14.19;72.42;100886.47;5109534;28;20052;-88
2021/12/04 02:59:55;;;;;;;3.65;2.88;;;;;;;14.18;72.67;100887.28;5109526;28;20050;-87
2021/12/04 03:02:22;;;;;;;4.13;3.10;;;;;;;14.18;72.59;100892.53;5095512;28;20042;-88
2021/12/04 03:04:51;;;;;;;4.97;3.30;;;;;;;14.00;72.71;100861.19;5124034;27;20019;-88
2021/12/04 03:07:18;;;;;;;4.85;3.33;;;;;;;13.99;72.41;100883.91;5082564;28;20028;-88
2021/12/04 03:09:44;;;;;;;4.53;2.95;;;;;;;14.14;72.76;100922.13;5112804;28;20119;-88
2021/12/04 03:12:11;;;;;;;4.32;3.10;;;;;;;13.96;72.95;100903.88;5129587;27;20474;-87
2021/12/04 03:14:37;;;;;;;6.10;3.30;;;;;;;13.92;72.84;100891.47;5110237;28;20019;-87
2021/12/04 03:17:03;;;;;;;4.00;3.20;;;;;;;14.11;72.84;100935.16;5094985;28;20180;-86
2021/12/04 03:19:29;;;;;;;;;;;;;;;14.16;72.48;100929.28;5086323;28;20055;-86
2021/12/04 03:21:55;;;;;;;;;;;;;;;14.14;72.46;100935.25;5107690;27;20419;-87
2021/12/04 03:24:21;;;;;;;;;;;;;;;14.17;72.39;100924.91;5101336;28;19920;-86
2021/12/04 03:26:50;;;;;;;;;;;;;;;14.18;72.08;100908.31;5123008;27;19968;-87
2021/12/04 03:29:21;;;;;;;;;;;;;;;14.22;72.12;100907.59;5114468;27;19912;-86
2021/12/04 03:42:31;;;;;;;;;;;;;;;14.25;71.78;100876.22;5114040;27;19934;-87
2021/12/04 03:44:56;;;;;;;;;;;;;;;14.25;71.66;100879.72;5095673;28;20387;-87
2021/12/04 03:47:22;;;;;;;;;;;;;;;14.24;71.78;100875.34;5099011;28;19916;-87
2021/12/04 03:49:47;;;;;;;;;;;;;;;14.25;71.84;100877.09;5112269;28;19951;-87
2021/12/04 03:52:13;;;;;;;;;;;;;;;14.28;72.00;100871.06;5100904;27;19916;-86
2021/12/04 03:54:39;;;;;;;;;;;;;;;14.24;71.80;100856.94;5094876;28;19922;-87
2021/12/04 03:57:05;;;;;;;;;;;;;;;14.23;71.96;100860.38;5100337;28;19954;-87
2021/12/04 03:59:35;;;;;;;;;;;;;;;14.25;72.08;100857.84;5094960;28;19916;-87
2021/12/04 04:02:00;;;;;;;;;;;;;;;14.25;71.88;100856.09;5111924;28;19938;-86
2021/12/04 04:04:26;;;;;;;;;;;;;;;14.29;71.76;100846.63;5120402;27;20394;-87
2021/12/04 04:06:51;;;;;;;;;;;;;;;14.25;72.10;100837.72;5111632;28;19911;-86
2021/12/04 04:09:17;;;;;;;;;;;;;;;14.22;71.90;100821.84;5111932;28;19911;-87
2021/12/04 04:11:42;;;;;;;;;;;;;;;14.24;71.97;100820.16;5112788;28;19915;-86
2021/12/04 04:14:08;;;;;;;;;;;;;;;14.14;72.21;100836.38;5102706;28;19942;-86
2021/12/04 04:16:39;;;;;;;;;;;;;;;14.02;72.73;100843.75;5112744;28;19915;-87
2021/12/04 04:19:05;;;;;;;;;;;;;;;14.22;72.10;100828.81;5098685;28;20421;-87
2021/12/04 04:21:31;;;;;;;;;;;;;;;14.25;71.89;100813.19;5098434;28;19955;-87
2021/12/04 04:23:56;;;;;;;;;;;;;;;14.07;72.50;100815.06;5109408;28;19936;-86
2021/12/04 04:26:22;;;;;;;;;;;;;;;14.21;72.25;100824.41;5102582;28;19915;-87
2021/12/04 04:28:47;;;;;;;;;;;;;;;14.20;72.13;100828.75;5107817;28;19939;-85
2021/12/04 04:31:13;;;;;;;;;;;;;;;14.18;72.22;100833.06;5127568;27;20424;-87
2021/12/04 04:33:42;;;;;;;;;;;;;;;14.04;72.97;100831.59;5114085;27;19916;-88
2021/12/04 04:39:13;;;;;;;;;;;;;;;14.12;72.66;100855.53;5107626;28;19923;-86
2021/12/04 05:11:35;;;;;;;;;;;;;;;14.15;72.97;100863.53;5090404;28;20451;-87
2021/12/04 05:14:02;;;;;;;;;;;;;;;14.18;72.54;100854.06;5091339;28;19927;-86
2021/12/04 05:16:40;;;;;;;;;;;;;;;14.12;72.89;100856.44;5094529;27;20010;-87
2021/12/04 05:19:12;;;;;;;;;;;;;;;14.05;73.09;100841.25;5105009;28;19916;-86
2021/12/04 05:21:38;;;;;;;;;;;;;;;14.15;73.00;100853.94;5099041;27;19911;-87
2021/12/04 05:24:03;;;;;;;;;;;;;;;14.12;72.97;100859.06;5108691;27;19927;-88
2021/12/04 05:26:29;;;;;;;;;;;;;;;14.16;72.81;100847.84;5082319;28;19912;-88
2021/12/04 05:28:56;;;;;;;;;;;;;;;14.17;72.78;100848.75;5089448;28;19951;-87
2021/12/04 05:31:21;;;;;;;;;;;;;;;14.15;72.77;100851.31;5111356;28;19915;-87
2021/12/04 05:33:47;;;;;;;;;;;;;;;14.14;73.01;100851.22;5092122;28;19916;-88
2021/12/04 05:36:13;;;;;;;;;;;;;;;14.13;73.11;100867.84;5097266;28;20011;-86
2021/12/04 05:38:38;;;;;;;;;;;;;;;14.03;73.36;100879.66;5094311;28;19998;-86
2021/12/04 05:41:04;;;;;;;;;;;;;;;14.00;73.67;100884.81;5103690;28;19923;-86
2021/12/04 05:43:30;;;;;;;;;;;;;;;14.00;73.62;100885.69;5093259;28;19932;-87
2021/12/04 05:46:05;;;;;;;;;;;;;;;14.08;73.40;100882.53;5108212;28;20298;-86
2021/12/04 05:51:23;;;;;;;;;;;;;;;14.00;73.48;100893.56;5093192;28;19919;-87
2021/12/04 05:56:23;;;;;;;;;;;;;;;14.02;73.51;100849.00;5077444;28;19972;-86
2021/12/04 05:58:49;;;;;;;;;;;;;;;14.05;73.54;100867.50;5096166;28;19916;-87
2021/12/04 06:01:16;;;;;;;;;;;;;;;14.08;73.19;100875.53;5081967;28;20014;-87
2021/12/04 06:03:41;;;;;;;;;;;;;;;13.97;73.64;100858.41;5067197;28;19916;-88
2021/12/04 06:06:06;;;;;;;;;;;;;;;14.05;73.38;100855.31;5080568;28;19939;-87
2021/12/04 06:08:32;;;;;;;;;;;;;;;14.04;73.41;100847.34;5071718;28;19928;-86
2021/12/04 06:10:57;;;;;;;;;;;;;;;14.02;73.56;100839.41;5063769;28;19952;-87
2021/12/04 06:13:23;;;;;;;;;;;;;;;14.01;73.52;100849.81;5073391;28;19943;-89
2021/12/04 06:15:49;;;;;;;;;;;;;;;13.96;74.02;100848.75;5073699;28;19918;-87
2021/12/04 06:18:15;;;;;;;;;;;;;;;13.99;73.81;100860.28;5076497;28;19923;-85
2021/12/04 06:23:25;;;;;;;;;;;;;;;13.96;74.06;100854.00;5074480;28;19939;-87
2021/12/04 06:25:51;;;;;;;;;;;;;;;13.93;74.05;100848.66;5073169;28;20371;-87
2021/12/04 06:28:16;;;;;;;;;;;;;;;13.99;73.88;100852.41;5077729;28;19923;-88
2021/12/04 06:30:42;;;;;;;;;;;;;;;13.99;73.98;100848.88;5073724;28;19927;-88
2021/12/04 06:33:08;;;;;;;;;;;;;;;13.93;74.30;100851.28;5074374;28;20620;-89
2021/12/04 06:35:36;;;;;;;;;;;;;;;13.97;74.04;100847.91;5059401;28;19943;-89
2021/12/04 06:38:02;;;;;;;;;;;;;;;14.00;73.84;100834.94;5079043;28;19963;-86
2021/12/04 06:40:28;;;;;;;;;;;;;;;13.98;73.83;100821.72;5052861;28;19919;-86
2021/12/04 06:42:57;;;;;;;;;;;;;;;13.95;74.08;100825.94;5073178;28;19924;-88
2021/12/04 06:45:23;;;;;;;;;;;;;;;13.95;74.01;100826.88;5079559;28;19916;-86
2021/12/04 06:47:55;;;;;;;;;;;;;;;14.03;73.51;100837.66;5072743;28;20110;-85
2021/12/04 06:50:38;;;;;;;;;;;;;;;13.98;73.73;100836.59;5068473;28;19917;-85
2021/12/04 06:53:18;;;;;;;;;;;;;;;13.97;73.63;100842.66;5073229;28;20049;-86
2021/12/04 06:55:47;;;;;;;;;;;;;;;13.97;73.83;100863.66;5069145;28;19923;-86
2021/12/04 06:58:13;;;;;;;;;;;;;;;13.96;74.01;100857.53;5079435;28;19934;-86
2021/12/04 07:00:39;;;;;;;;;;;;;;;13.94;73.75;100859.19;5102006;28;20426;-87
2021/12/04 07:03:04;;;;;;;;;;;;;;;13.98;73.71;100862.84;5095793;28;20405;-87
2021/12/04 07:05:30;;;;;;;;;;;;;;;13.95;73.97;100850.50;5106552;28;19916;-87
2021/12/04 07:07:55;;;;;;;;;;;;;;;14.00;73.59;100848.94;5126920;27;19919;-87
2021/12/04 07:10:21;;;;;;;;;;;;;;;14.13;72.86;100857.34;5124516;27;19912;-86
2021/12/04 07:12:46;;;;;;;;;;;;;;;14.25;72.19;100849.94;5091150;27;19993;-85
2021/12/04 07:15:12;;;;;;;;;;;;;;;14.08;73.29;100862.41;5079190;28;19919;-87
2021/12/04 07:17:38;;;;;;;;;;;;;;;14.14;72.75;100859.09;5115730;27;19916;-85
2021/12/04 07:20:04;;;;;;;;;;;;;;;14.29;71.79;100865.00;5103659;28;19964;-85
2021/12/04 07:22:30;;;;;;;;;;;;;;;14.32;71.63;100874.72;5084833;28;20402;-84
2021/12/04 07:24:55;;;;;;;;;;;;;;;14.24;72.00;100867.44;5112705;27;19923;-84
2021/12/04 07:27:21;;;;;;;;;;;;;;;14.28;71.65;100875.44;5094763;27;19919;-86
2021/12/04 07:29:46;;;;;;;;;;;;;;;14.16;71.99;100883.69;5103924;27;19918;-86
2021/12/04 07:32:11;;;;;;;;;;;;;;;13.76;73.18;100882.06;5116612;27;19916;-85
2021/12/04 07:34:37;;;;;;;;;;;;;;;13.83;73.97;100891.97;5121746;27;19918;-85
2021/12/04 07:37:03;;;;;;;;;;;;;;;13.92;73.84;100892.34;5116910;27;19923;-85
2021/12/04 07:39:29;;;;;;;;;;;;;;;14.00;74.06;100888.31;5113091;27;19916;-88
2021/12/04 07:41:54;;;;;;;;;;;;;;;14.05;73.81;100897.31;5074723;28;20010;-89
2021/12/04 07:44:20;;;;;;;;;;;;;;;14.05;73.74;100892.06;5100882;28;19912;-89
2021/12/04 07:46:46;;;;;;;;;;;;;;;14.10;73.89;100899.22;5085993;27;19915;-89
2021/12/04 07:49:13;;;;;;;;;;;;;;;14.11;73.97;100903.63;5088828;28;19981;-89
2021/12/04 07:51:38;;;;;;;;;;;;;;;14.08;74.16;100907.03;5087310;28;19915;-88
2021/12/04 07:54:03;;;;;;;;;;;;;;;14.15;74.03;100900.31;5099052;27;19919;-87
2021/12/04 07:56:29;;;;;;;;;;;;;;;14.14;74.07;100907.31;5094293;28;19916;-86
2021/12/04 07:58:54;;;;;;;;;;;;;;;14.13;72.77;100918.63;5080750;28;20007;-87
2021/12/04 08:01:20;;;;;;;;;;;;;;;14.30;71.75;100915.81;5058616;28;20008;-85
2021/12/04 08:03:45;;;;;;;;;;;;;;;14.29;71.53;100911.38;5068448;28;19917;-85
2021/12/04 08:06:11;;;;;;;;;;;;;;;14.22;71.19;100913.78;5069971;28;19913;-86
2021/12/04 08:08:36;;;;;;;;;;;;;;;14.18;71.10;100913.56;5072774;28;20742;-86
2021/12/04 08:11:04;;;;;;;;;;;;;;;14.09;71.23;100914.06;5060260;28;20345;-86
2021/12/04 08:13:29;;;;;;;;;;;;;;;14.09;71.17;100908.81;5081759;28;19965;-86
2021/12/04 08:15:55;;;;;;;;;;;;;;;14.06;71.47;100903.44;5075125;28;19995;-87
2021/12/04 08:18:21;;;;;;;;;;;;;;;14.05;71.20;100904.25;5073211;28;19917;-86
2021/12/04 08:20:47;;;;;;;;;;;;;;;14.01;71.06;100904.97;5073229;28;20383;-86
2021/12/04 08:23:12;;;;;;;;;;;;;;;14.02;70.93;100902.41;5078851;28;20026;-86
2021/12/04 08:25:38;;;;;;;;;;;;;;;13.96;71.18;100896.00;5079718;28;19947;-87
2021/12/04 08:28:06;;;;;;;;;;;;;;;13.90;71.50;100908.88;5074294;28;20514;-86
2021/12/04 08:30:36;;;;;;;;;;;;;;;13.92;71.33;100899.34;5058298;28;19919;-86
2021/12/04 08:33:02;;;;;;;;;;;;;;;13.91;71.13;100895.81;5062265;28;19922;-86
2021/12/04 08:35:29;;;;;;;;;;;;;;;13.87;70.63;100900.88;5078357;28;19913;-87
2021/12/04 08:37:57;;;;;;;;;;;;;;;13.90;70.95;100895.75;5072816;28;20387;-85
2021/12/04 08:40:23;;;;;;;;;;;;;;;13.81;70.95;100889.28;5071360;28;19969;-86
2021/12/04 08:42:49;;;;;;;;;;;;;;;13.85;70.90;100885.06;5067526;28;19924;-85
2021/12/04 08:45:14;;;;;;;;;;;;;;;13.87;70.62;100890.38;5075634;28;19955;-85
2021/12/04 08:47:40;;;;;;;;;;;;;;;13.63;71.33;100889.41;5056099;28;19917;-86
2021/12/04 08:50:07;;;;;;;;;;;;;;;13.36;72.60;100880.31;5065585;28;20064;-86
2021/12/04 08:52:32;;;;;;;;;;;;;;;13.69;71.32;100879.97;5066396;28;20011;-86
2021/12/04 08:54:58;;;;;;;;;;;;;;;13.72;71.26;100878.41;5065424;28;20021;-86
2021/12/04 08:57:23;;;;;;;;;;;;;;;13.70;71.30;100876.53;5065904;28;20386;-85
2021/12/04 08:59:49;;;;;;;;;;;;;;;13.68;71.41;100873.84;5094429;28;19919;-85
2021/12/04 09:02:15;;;;;;;;;;;;;;;13.67;71.51;100872.03;5111152;28;19923;-85
2021/12/04 09:04:41;;;;;;;;;;;;;;;13.71;71.36;100867.81;5117337;27;19911;-85
2021/12/04 09:07:07;;;;;;;;;;;;;;;13.74;71.48;100857.47;5105450;28;20398;-86
2021/12/04 09:09:33;;;;;;;;;;;;;;;13.72;71.47;100860.03;5118795;27;19981;-85
2021/12/04 09:12:00;;;;;;;;;;;;;;;13.69;71.49;100862.50;5097507;28;20378;-86
2021/12/04 09:14:27;;;;;;;;;;;;;;;13.71;71.38;100868.72;5115635;27;20325;-86
2021/12/04 09:16:53;;;;;;;;;;;;;;;13.64;71.67;100864.03;5096679;28;20309;-87
2021/12/04 09:19:19;;;;;;;;;;;;;;;13.68;71.44;100857.22;5087097;28;19919;-86
2021/12/04 09:21:45;;;;;;;;;;;;;;;13.68;71.55;100857.22;5079962;28;19920;-86
2021/12/04 09:24:14;;;;;;;;;;;;;;;13.64;71.52;100846.56;5103702;28;19920;-87
2021/12/04 09:31:52;;;;;;;;;;;;;;;13.65;71.56;100863.19;5094526;28;20068;-87
2021/12/04 09:34:33;;;;;;;;;;;;;;;13.66;71.42;100857.13;5091523;28;20012;-87
2021/12/04 10:23:02;;;;;;;;;;;;;;;13.49;71.84;100831.91;5095150;28;19939;-86
2021/12/04 10:33:28;;;;;;;;;;;;;;;13.51;71.39;100836.38;5107506;28;19954;-86
2021/12/04 10:35:54;;;;;;;;;;;;;;;13.50;71.51;100834.56;5081505;28;19967;-85
2021/12/04 10:38:21;;;;;;;;;;;;;;;13.51;71.16;100830.25;5106064;28;19915;-86
2021/12/04 10:40:48;;;;;;;;;;;;;;;13.49;70.98;100837.16;5076712;28;19916;-86
2021/12/04 10:43:16;;;;;;;;;;;;;;;13.46;71.29;100826.50;5078453;28;19924;-85
2021/12/04 10:45:44;;;;;;;;;;;;;;;13.49;71.46;100822.31;5057814;28;20318;-85
2021/12/04 10:48:12;;;;;;;;;;;;;;;13.41;70.37;100831.56;5111497;28;19953;-87
2021/12/04 10:50:49;;;;;;;;;;;;;;;13.29;71.13;100828.41;5095811;27;19923;-87
2021/12/04 10:53:23;;;;;;;;;;;;;;;13.33;71.39;100827.69;5098377;27;19961;-88
2021/12/04 11:01:30;;;;;;;;;;;;;;;13.43;71.12;100843.91;5107832;28;19922;-87
2021/12/04 11:04:06;;;;;;;;;;;;;;;13.41;71.46;100848.19;5090582;28;19916;-87
2021/12/04 11:45:41;;;;;;;;;;;;;;;13.39;72.21;100841.97;5109495;28;19974;-95
2021/12/04 11:48:03;;;;;;;;;;;;;;;13.30;72.56;100832.84;5104309;28;19912;-96
2021/12/04 11:51:01;;;;;;;;;;;;;;;13.26;72.42;100836.13;5096907;28;19958;-96
2021/12/04 11:53:29;;;;;;;;;;;;;;;13.07;72.74;100835.28;5112992;28;20006;-96
2021/12/04 11:55:56;;;;;;;;;;;;;;;13.22;72.13;100833.34;5094461;28;20167;-93
2021/12/04 11:58:23;;;;;;;;;;;;;;;13.21;72.20;100836.81;5116040;27;20267;-94
2021/12/04 12:00:54;;;;;;;;;;;;;;;13.23;72.48;100844.75;5106335;28;19971;-94
2021/12/04 12:03:41;;;;;;;;;;;;;;;13.31;72.37;100856.47;5110384;28;19934;-95
2021/12/04 12:06:29;;;;;;;;;;;;;;;13.27;72.39;100849.31;5094478;28;20007;-95
2021/12/04 12:09:17;;;;;;;;;;;;;;;13.35;72.23;100842.66;5094209;28;19916;-94
2021/12/04 12:12:01;;;;;;;;;;;;;;;13.33;72.32;100844.31;5109728;28;20383;-94
2021/12/04 12:14:38;;;;;;;;;;;;;;;13.25;72.06;100845.72;5095485;28;20566;-95
2021/12/04 12:23:09;;;;;;;;;;;;;;;13.23;72.28;100850.88;5105416;28;19955;-93
2021/12/04 12:26:12;;;;;;;;;;;;;;;13.17;72.38;100840.13;5103220;28;19919;-94
2021/12/04 12:37:27;;;;;;;;;;;;;;;13.32;71.75;100845.19;5083063;28;19923;-96
2021/12/04 12:40:21;;;;;;;;;;;;;;;13.28;71.70;100843.22;5130020;27;19919;-96
2021/12/04 12:42:52;;;;;;;;;;;;;;;13.24;71.84;100849.16;5129175;27;19916;-93
2021/12/04 12:45:21;;;;;;;;;;;;;;;13.26;72.12;100852.72;5078260;28;20036;-92
2021/12/04 12:47:50;;;;;;;;;;;;;;;13.25;72.04;100858.81;5127038;27;20390;-93
2021/12/04 12:53:47;;;;;;;;;;;;;;;13.18;71.84;100862.88;5109865;28;19919;-94
2021/12/04 12:56:14;;;;;;;;;;;;;;;13.25;71.82;100869.31;5118137;27;19915;-93
2021/12/04 12:58:44;;;;;;;;;;;;;;;13.20;71.89;100871.69;5087731;28;19951;-95
2021/12/04 13:16:31;;;;;;;;;;;;;;;13.15;71.62;100883.72;5113489;28;20006;-92
2021/12/04 13:19:02;;;;;;;;;;;;;;;13.19;71.69;100883.03;5095739;28;19919;-94
2021/12/04 13:21:47;;;;;;;;;;;;;;;13.09;71.72;100901.78;5095615;28;19918;-94
2021/12/04 13:24:27;;;;;;;;;;;;;;;13.12;71.90;100904.56;5095345;28;20384;-92
2021/12/04 13:30:15;;;;;;;;;;;;;;;13.12;71.62;100922.94;5116051;27;19937;-92
2021/12/04 13:32:51;;;;;;;;;;;;;;;13.15;71.50;100916.91;5097483;28;20000;-93
2021/12/04 13:35:20;;;;;;;;;;;;;;;13.08;71.72;100925.31;5100748;28;19915;-93
2021/12/04 13:40:49;;;;;;;;;;;;;;;13.08;71.59;100939.34;5111044;27;19922;-87
2021/12/04 13:43:15;;;;;;;;;;;;;;;13.08;71.37;100941.97;5098420;28;20014;-85
2021/12/04 13:45:41;;;;;;;;;;;;;;;13.11;71.46;100946.44;5080469;28;20763;-87
2021/12/04 13:48:08;;;;;;;;;;;;;;;13.11;71.45;100957.81;5097671;28;20281;-87
2021/12/04 13:53:03;;;;;;;;;;;;;;;13.03;71.29;100959.19;5127504;28;19911;-86
2021/12/04 13:55:28;;;;;;;;;;;;;;;12.99;71.36;100960.75;5119365;28;19963;-86
2021/12/04 13:57:56;;;;;;;;;;;;;;;12.98;71.56;100958.97;5106853;28;20369;-87
2021/12/04 14:00:21;;;;;;;;;;;;;;;13.06;71.33;100966.28;5095378;28;19919;-87
2021/12/04 14:02:47;;;;;;;;;;;;;;;13.03;71.19;100965.31;5092290;28;20420;-87
2021/12/04 14:05:15;;;;;;;;;;;;;;;12.98;71.18;100969.47;5107800;28;19915;-84
2021/12/04 14:07:48;;;;;;;;;;;;;;;13.00;71.24;100980.03;5074380;28;20382;-87
2021/12/04 14:10:19;;;;;;;;;;;;;;;12.91;71.35;100983.09;5116975;28;19929;-86
2021/12/04 14:12:44;;;;;;;;;;;;;;;12.96;71.40;100983.31;5090217;28;19947;-87
2021/12/04 14:15:10;;;;;;;;;;;;;;;12.93;71.27;100988.41;5078473;28;20343;-87
2021/12/04 14:17:36;;;;;;;;;;;;;;;12.91;71.06;100993.59;5102457;28;19919;-87
2021/12/04 14:20:02;;;;;;;;;;;;;;;12.91;71.17;100990.97;5121572;27;20312;-87
2021/12/04 14:22:27;;;;;;;;;;;;;;;12.94;71.03;100992.84;5103328;28;19915;-87
2021/12/04 14:24:56;;;;;;;;;;;;;;;12.92;70.84;100997.09;5105097;27;20319;-87
2021/12/04 14:27:26;;;;;;;;;;;;;;;12.88;70.91;101011.78;5116427;27;20313;-87
2021/12/04 14:29:53;;;;;;;;;;;;;;;12.83;71.19;101013.28;5115940;28;20029;-87
2021/12/04 14:32:28;;;;;;;;;;;;;;;12.85;70.85;101014.25;5114197;28;20302;-87
2021/12/04 14:35:16;;;;;;;;;;;;;;;12.87;70.79;101006.44;5110066;28;20283;-87
2021/12/04 14:37:43;;;;;;;;;;;;;;;12.86;70.83;101013.41;5081155;28;19949;-87
2021/12/04 14:40:10;;;;;;;;;;;;;;;12.81;70.87;101014.94;5083661;28;19958;-87
2021/12/04 14:42:36;;;;;;;;;;;;;;;12.82;70.65;101011.47;5092974;28;19920;-87
2021/12/04 14:45:03;;;;;;;;;;;;;;;12.79;70.83;101011.34;5095700;28;19916;-88
2021/12/04 14:47:33;;;;;;;;;;;;;;;12.79;70.85;101008.72;5102119;27;20374;-87
2021/12/04 14:50:00;;;;;;;;;;;;;;;12.77;70.95;101003.41;5120720;27;19912;-87
2021/12/04 14:52:27;;;;;;;;;;;;;;;12.78;70.72;100997.34;5100981;28;19924;-86
2021/12/04 14:54:52;;;;;;;;;;;;;;;12.82;70.59;101001.00;5093350;28;19962;-87
2021/12/04 14:57:22;;;;;;;;;;;;;;;12.83;70.51;101002.81;5123772;27;19989;-87
2021/12/04 14:59:58;;;;;;;;;;;;;;;12.83;70.38;101008.06;5127983;27;19916;-87
2021/12/04 15:02:24;;;;;;;;;;;;;;;12.78;70.45;101002.59;5083713;28;19930;-87
2021/12/04 15:04:50;;;;;;;;;;;;;;;12.74;70.53;101003.25;5108134;28;19926;-88
2021/12/04 15:07:26;;;;;;;;;;;;;;;12.74;70.88;101005.88;5116985;27;19916;-88
2021/12/04 15:09:51;;;;;;;;;;;;;;;12.71;70.93;100999.59;5078717;28;19919;-87
2021/12/04 15:12:28;;;;;;;;;;;;;;;12.70;70.99;101003.94;5114771;27;19916;-87
2021/12/04 15:14:58;;;;;;;;;;;;;;;12.74;70.60;101013.75;5112955;27;19923;-88
2021/12/04 15:17:24;;;;;;;;;;;;;;;12.61;71.25;101008.69;5083761;28;19923;-88
2021/12/04 15:19:53;;;;;;;;;;;;;;;12.69;70.66;101009.09;5088290;28;19920;-87
2021/12/04 15:22:23;;;;;;;;;;;;;;;12.74;70.31;101010.19;5100090;27;19916;-88
2021/12/04 15:24:49;;;;;;;;;;;;;;;12.59;70.84;101007.72;5127992;27;19917;-89
2021/12/04 15:27:16;;;;;;;;;;;;;;;12.67;70.45;101019.47;5084536;28;19922;-88
2021/12/04 15:29:46;;;;;;;;;;;;;;;12.58;70.67;101025.16;5107370;28;20002;-87
2021/12/04 15:32:13;;;;;;;;;;;;;;;12.66;70.75;101012.47;5074402;28;19911;-87
2021/12/04 15:34:43;;;;;;;;;;;;;;;12.65;70.67;101015.88;5102791;28;20354;-87
2021/12/04 15:37:09;;;;;;;;;;;;;;;12.63;70.55;101010.56;5072843;28;19912;-87
2021/12/04 15:39:44;;;;;;;;;;;;;;;12.66;70.30;101011.53;5126436;27;19916;-86
2021/12/04 15:55:12;;;;;;;;;;;;;;;12.60;70.48;101025.25;5103316;28;19912;-87
2021/12/04 15:57:37;;;;;;;;;;;;;;;12.60;70.62;101028.75;5107910;28;19908;-86
2021/12/04 16:00:11;;;;;;;;;;;;;;;12.58;70.62;101035.66;5112944;28;19922;-87
2021/12/04 16:02:43;;;;;;;;;;;;;;;12.57;70.41;101031.25;5112278;28;19919;-87
2021/12/04 16:05:18;;;;;;;;;;;;;;;12.56;70.68;101037.28;5078143;28;19918;-87